sensor_id;sensor_type;location;lat;lon;timestamp;P1;durP1;ratioP1;P2;durP2;ratioP2
52432;SDS011;38352;53.244;6.594;2023-03-14T00:01:54;16.38;;;5.65;;
52432;SDS011;38352;53.244;6.594;2023-03-14T00:04:20;24.95;;;5.85;;
52432;SDS011;38352;53.244;6.594;2023-03-14T00:06:46;20.77;;;4.53;;
52432;SDS011;38352;53.244;6.594;2023-03-14T00:09:12;16.85;;;4.90;;
52432;SDS011;38352;53.244;6.594;2023-03-14T00:11:38;26.33;;;6.43;;
52432;SDS011;38352;53.244;6.594;2023-03-14T00:14:04;16.83;;;5.10;;
52432;SDS011;38352;53.244;6.594;2023-03-14T00:16:31;17.15;;;4.55;;
52432;SDS011;38352;53.244;6.594;2023-03-14T00:19:00;22.40;;;5.93;;
52432;SDS011;38352;53.244;6.594;2023-03-14T00:21:26;21.83;;;5.43;;
52432;SDS011;38352;53.244;6.594;2023-03-14T00:23:52;17.55;;;4.90;;
52432;SDS011;38352;53.244;6.594;2023-03-14T00:26:19;21.98;;;5.18;;
52432;SDS011;38352;53.244;6.594;2023-03-14T00:28:46;17.63;;;4.72;;
52432;SDS011;38352;53.244;6.594;2023-03-14T00:31:13;16.45;;;4.70;;
52432;SDS011;38352;53.244;6.594;2023-03-14T00:33:39;19.33;;;4.35;;
52432;SDS011;38352;53.244;6.594;2023-03-14T00:36:06;15.00;;;4.32;;
52432;SDS011;38352;53.244;6.594;2023-03-14T00:38:34;22.98;;;4.90;;
52432;SDS011;38352;53.244;6.594;2023-03-14T00:41:03;15.25;;;4.63;;
52432;SDS011;38352;53.244;6.594;2023-03-14T00:43:29;20.45;;;4.45;;
52432;SDS011;38352;53.244;6.594;2023-03-14T00:45:55;15.10;;;5.40;;
52432;SDS011;38352;53.244;6.594;2023-03-14T00:48:22;21.45;;;4.35;;
52432;SDS011;38352;53.244;6.594;2023-03-14T00:50:48;20.15;;;4.53;;
52432;SDS011;38352;53.244;6.594;2023-03-14T00:53:15;18.80;;;4.28;;
52432;SDS011;38352;53.244;6.594;2023-03-14T00:55:41;20.30;;;4.82;;
52432;SDS011;38352;53.244;6.594;2023-03-14T00:58:08;20.95;;;5.50;;
52432;SDS011;38352;53.244;6.594;2023-03-14T01:00:34;18.52;;;4.50;;
52432;SDS011;38352;53.244;6.594;2023-03-14T01:03:01;17.90;;;4.10;;
52432;SDS011;38352;53.244;6.594;2023-03-14T01:05:27;15.60;;;4.97;;
52432;SDS011;38352;53.244;6.594;2023-03-14T01:07:53;12.75;;;3.80;;
52432;SDS011;38352;53.244;6.594;2023-03-14T01:10:19;21.10;;;4.97;;
52432;SDS011;38352;53.244;6.594;2023-03-14T01:12:45;17.40;;;4.95;;
52432;SDS011;38352;53.244;6.594;2023-03-14T01:15:12;16.23;;;4.22;;
52432;SDS011;38352;53.244;6.594;2023-03-14T01:17:38;14.10;;;4.25;;
52432;SDS011;38352;53.244;6.594;2023-03-14T01:20:05;18.38;;;3.75;;
52432;SDS011;38352;53.244;6.594;2023-03-14T01:22:34;15.60;;;4.40;;
52432;SDS011;38352;53.244;6.594;2023-03-14T01:25:00;15.05;;;3.85;;
52432;SDS011;38352;53.244;6.594;2023-03-14T01:27:26;17.20;;;3.88;;
52432;SDS011;38352;53.244;6.594;2023-03-14T01:29:52;19.17;;;3.55;;
52432;SDS011;38352;53.244;6.594;2023-03-14T01:32:19;16.10;;;4.07;;
52432;SDS011;38352;53.244;6.594;2023-03-14T01:34:45;16.35;;;3.70;;
52432;SDS011;38352;53.244;6.594;2023-03-14T01:37:11;15.52;;;3.92;;
52432;SDS011;38352;53.244;6.594;2023-03-14T01:39:37;14.75;;;3.85;;
52432;SDS011;38352;53.244;6.594;2023-03-14T01:42:03;17.55;;;3.95;;
52432;SDS011;38352;53.244;6.594;2023-03-14T01:47:14;19.90;;;4.60;;
52432;SDS011;38352;53.244;6.594;2023-03-14T01:49:40;16.77;;;5.72;;
52432;SDS011;38352;53.244;6.594;2023-03-14T01:57:03;15.40;;;3.65;;
52432;SDS011;38352;53.244;6.594;2023-03-14T01:59:30;13.18;;;3.10;;
52432;SDS011;38352;53.244;6.594;2023-03-14T02:01:57;11.52;;;3.90;;
52432;SDS011;38352;53.244;6.594;2023-03-14T02:04:24;11.80;;;3.45;;
52432;SDS011;38352;53.244;6.594;2023-03-14T02:06:58;17.27;;;4.40;;
52432;SDS011;38352;53.244;6.594;2023-03-14T02:09:26;12.10;;;3.70;;
52432;SDS011;38352;53.244;6.594;2023-03-14T02:11:52;11.77;;;3.38;;
52432;SDS011;38352;53.244;6.594;2023-03-14T02:14:28;15.60;;;3.97;;
52432;SDS011;38352;53.244;6.594;2023-03-14T02:16:55;10.50;;;2.63;;
52432;SDS011;38352;53.244;6.594;2023-03-14T02:19:25;16.80;;;3.38;;
52432;SDS011;38352;53.244;6.594;2023-03-14T02:22:06;11.88;;;2.70;;
52432;SDS011;38352;53.244;6.594;2023-03-14T02:29:35;16.45;;;3.38;;
52432;SDS011;38352;53.244;6.594;2023-03-14T02:32:02;11.27;;;2.65;;
52432;SDS011;38352;53.244;6.594;2023-03-14T02:34:28;14.85;;;2.90;;
52432;SDS011;38352;53.244;6.594;2023-03-14T02:36:56;14.27;;;2.67;;
52432;SDS011;38352;53.244;6.594;2023-03-14T02:39:35;14.07;;;3.75;;
52432;SDS011;38352;53.244;6.594;2023-03-14T02:42:02;13.57;;;2.88;;
52432;SDS011;38352;53.244;6.594;2023-03-14T02:44:28;8.27;;;3.22;;
52432;SDS011;38352;53.244;6.594;2023-03-14T02:46:54;13.38;;;2.92;;
52432;SDS011;38352;53.244;6.594;2023-03-14T02:49:20;14.73;;;4.15;;
52432;SDS011;38352;53.244;6.594;2023-03-14T02:51:47;12.88;;;3.60;;
52432;SDS011;38352;53.244;6.594;2023-03-14T02:54:14;15.65;;;3.17;;
52432;SDS011;38352;53.244;6.594;2023-03-14T02:56:41;12.05;;;2.97;;
52432;SDS011;38352;53.244;6.594;2023-03-14T02:59:07;10.90;;;3.30;;
52432;SDS011;38352;53.244;6.594;2023-03-14T03:01:34;15.90;;;3.40;;
52432;SDS011;38352;53.244;6.594;2023-03-14T03:04:00;10.07;;;3.03;;
52432;SDS011;38352;53.244;6.594;2023-03-14T03:06:26;11.55;;;3.50;;
52432;SDS011;38352;53.244;6.594;2023-03-14T03:08:52;11.32;;;3.53;;
52432;SDS011;38352;53.244;6.594;2023-03-14T03:11:18;10.75;;;3.20;;
52432;SDS011;38352;53.244;6.594;2023-03-14T03:13:44;9.73;;;3.70;;
52432;SDS011;38352;53.244;6.594;2023-03-14T03:16:10;13.07;;;4.22;;
52432;SDS011;38352;53.244;6.594;2023-03-14T03:18:38;11.20;;;3.97;;
52432;SDS011;38352;53.244;6.594;2023-03-14T03:21:04;10.35;;;4.18;;
52432;SDS011;38352;53.244;6.594;2023-03-14T03:23:33;9.75;;;3.53;;
52432;SDS011;38352;53.244;6.594;2023-03-14T03:26:00;12.18;;;3.58;;
52432;SDS011;38352;53.244;6.594;2023-03-14T03:28:27;11.15;;;3.50;;
52432;SDS011;38352;53.244;6.594;2023-03-14T03:30:53;10.18;;;3.85;;
52432;SDS011;38352;53.244;6.594;2023-03-14T03:33:19;14.18;;;4.38;;
52432;SDS011;38352;53.244;6.594;2023-03-14T03:35:50;13.13;;;4.20;;
52432;SDS011;38352;53.244;6.594;2023-03-14T03:38:17;13.80;;;4.72;;
52432;SDS011;38352;53.244;6.594;2023-03-14T03:40:45;12.35;;;4.25;;
52432;SDS011;38352;53.244;6.594;2023-03-14T03:43:11;14.00;;;4.63;;
52432;SDS011;38352;53.244;6.594;2023-03-14T03:45:37;10.15;;;4.05;;
52432;SDS011;38352;53.244;6.594;2023-03-14T03:48:03;15.40;;;3.85;;
52432;SDS011;38352;53.244;6.594;2023-03-14T03:50:29;14.25;;;5.00;;
52432;SDS011;38352;53.244;6.594;2023-03-14T03:52:55;16.50;;;4.65;;
52432;SDS011;38352;53.244;6.594;2023-03-14T03:55:21;12.20;;;4.53;;
52432;SDS011;38352;53.244;6.594;2023-03-14T03:57:47;12.55;;;4.38;;
52432;SDS011;38352;53.244;6.594;2023-03-14T04:00:13;11.98;;;4.82;;
52432;SDS011;38352;53.244;6.594;2023-03-14T04:02:39;12.88;;;4.57;;
52432;SDS011;38352;53.244;6.594;2023-03-14T04:05:06;17.83;;;5.05;;
52432;SDS011;38352;53.244;6.594;2023-03-14T04:07:32;16.98;;;5.10;;
52432;SDS011;38352;53.244;6.594;2023-03-14T04:09:58;17.58;;;5.20;;
52432;SDS011;38352;53.244;6.594;2023-03-14T04:12:24;14.27;;;5.18;;
52432;SDS011;38352;53.244;6.594;2023-03-14T04:14:50;17.52;;;5.45;;
52432;SDS011;38352;53.244;6.594;2023-03-14T04:17:17;15.25;;;5.07;;
52432;SDS011;38352;53.244;6.594;2023-03-14T04:19:43;16.05;;;5.30;;
52432;SDS011;38352;53.244;6.594;2023-03-14T04:22:09;17.55;;;4.75;;
52432;SDS011;38352;53.244;6.594;2023-03-14T04:24:35;14.95;;;5.93;;
52432;SDS011;38352;53.244;6.594;2023-03-14T04:27:01;20.80;;;5.57;;
52432;SDS011;38352;53.244;6.594;2023-03-14T04:29:27;20.67;;;5.10;;
52432;SDS011;38352;53.244;6.594;2023-03-14T04:31:53;17.30;;;5.65;;
52432;SDS011;38352;53.244;6.594;2023-03-14T04:34:19;17.08;;;5.85;;
52432;SDS011;38352;53.244;6.594;2023-03-14T04:36:45;20.15;;;5.93;;
52432;SDS011;38352;53.244;6.594;2023-03-14T04:39:11;21.85;;;6.28;;
52432;SDS011;38352;53.244;6.594;2023-03-14T04:41:37;16.05;;;5.90;;
52432;SDS011;38352;53.244;6.594;2023-03-14T04:44:03;20.42;;;6.38;;
52432;SDS011;38352;53.244;6.594;2023-03-14T04:46:29;17.48;;;6.22;;
52432;SDS011;38352;53.244;6.594;2023-03-14T04:48:55;20.80;;;6.75;;
52432;SDS011;38352;53.244;6.594;2023-03-14T04:51:22;20.17;;;6.45;;
52432;SDS011;38352;53.244;6.594;2023-03-14T04:53:50;24.67;;;7.40;;
52432;SDS011;38352;53.244;6.594;2023-03-14T04:56:16;17.52;;;6.85;;
52432;SDS011;38352;53.244;6.594;2023-03-14T04:58:42;16.15;;;6.85;;
52432;SDS011;38352;53.244;6.594;2023-03-14T05:01:09;16.80;;;6.80;;
52432;SDS011;38352;53.244;6.594;2023-03-14T05:03:35;19.55;;;7.97;;
52432;SDS011;38352;53.244;6.594;2023-03-14T05:06:03;21.70;;;7.90;;
52432;SDS011;38352;53.244;6.594;2023-03-14T05:08:29;20.83;;;8.40;;
52432;SDS011;38352;53.244;6.594;2023-03-14T05:10:56;20.17;;;7.43;;
52432;SDS011;38352;53.244;6.594;2023-03-14T05:13:22;20.92;;;7.57;;
52432;SDS011;38352;53.244;6.594;2023-03-14T05:15:48;18.52;;;6.47;;
52432;SDS011;38352;53.244;6.594;2023-03-14T05:18:15;11.73;;;6.82;;
52432;SDS011;38352;53.244;6.594;2023-03-14T05:20:41;23.02;;;8.15;;
52432;SDS011;38352;53.244;6.594;2023-03-14T05:23:10;19.75;;;7.28;;
52432;SDS011;38352;53.244;6.594;2023-03-14T05:25:36;17.35;;;6.93;;
52432;SDS011;38352;53.244;6.594;2023-03-14T05:28:02;15.32;;;7.03;;
52432;SDS011;38352;53.244;6.594;2023-03-14T05:30:28;16.60;;;6.78;;
52432;SDS011;38352;53.244;6.594;2023-03-14T05:32:55;12.40;;;5.70;;
52432;SDS011;38352;53.244;6.594;2023-03-14T05:35:22;13.45;;;5.43;;
52432;SDS011;38352;53.244;6.594;2023-03-14T05:37:48;16.98;;;5.70;;
52432;SDS011;38352;53.244;6.594;2023-03-14T05:40:14;12.23;;;5.45;;
52432;SDS011;38352;53.244;6.594;2023-03-14T05:42:40;17.95;;;6.30;;
52432;SDS011;38352;53.244;6.594;2023-03-14T05:45:06;13.63;;;5.63;;
52432;SDS011;38352;53.244;6.594;2023-03-14T05:47:32;15.45;;;5.25;;
52432;SDS011;38352;53.244;6.594;2023-03-14T05:49:58;12.95;;;6.32;;
52432;SDS011;38352;53.244;6.594;2023-03-14T05:52:24;19.15;;;6.53;;
52432;SDS011;38352;53.244;6.594;2023-03-14T05:54:50;15.20;;;6.13;;
52432;SDS011;38352;53.244;6.594;2023-03-14T05:57:16;18.30;;;6.05;;
52432;SDS011;38352;53.244;6.594;2023-03-14T05:59:42;13.20;;;5.47;;
52432;SDS011;38352;53.244;6.594;2023-03-14T06:02:09;16.88;;;5.35;;
52432;SDS011;38352;53.244;6.594;2023-03-14T06:04:35;10.23;;;4.50;;
52432;SDS011;38352;53.244;6.594;2023-03-14T06:07:01;12.18;;;4.55;;
52432;SDS011;38352;53.244;6.594;2023-03-14T06:09:27;12.05;;;4.60;;
52432;SDS011;38352;53.244;6.594;2023-03-14T06:11:53;13.40;;;4.57;;
52432;SDS011;38352;53.244;6.594;2023-03-14T06:14:19;8.50;;;3.78;;
52432;SDS011;38352;53.244;6.594;2023-03-14T06:16:45;8.98;;;3.80;;
52432;SDS011;38352;53.244;6.594;2023-03-14T06:19:13;5.80;;;2.70;;
52432;SDS011;38352;53.244;6.594;2023-03-14T06:21:39;9.18;;;3.35;;
52432;SDS011;38352;53.244;6.594;2023-03-14T06:24:05;8.00;;;3.08;;
52432;SDS011;38352;53.244;6.594;2023-03-14T06:26:31;7.88;;;3.10;;
52432;SDS011;38352;53.244;6.594;2023-03-14T06:28:57;7.15;;;2.40;;
52432;SDS011;38352;53.244;6.594;2023-03-14T06:31:28;5.28;;;1.65;;
52432;SDS011;38352;53.244;6.594;2023-03-14T06:33:54;3.90;;;1.83;;
52432;SDS011;38352;53.244;6.594;2023-03-14T06:36:20;8.23;;;1.92;;
52432;SDS011;38352;53.244;6.594;2023-03-14T06:38:46;6.22;;;1.58;;
52432;SDS011;38352;53.244;6.594;2023-03-14T06:41:12;12.48;;;1.92;;
52432;SDS011;38352;53.244;6.594;2023-03-14T06:43:38;18.55;;;3.25;;
52432;SDS011;38352;53.244;6.594;2023-03-14T06:46:05;12.77;;;3.00;;
52432;SDS011;38352;53.244;6.594;2023-03-14T06:48:31;10.25;;;2.40;;
52432;SDS011;38352;53.244;6.594;2023-03-14T06:50:57;15.80;;;3.00;;
52432;SDS011;38352;53.244;6.594;2023-03-14T06:53:23;17.05;;;2.38;;
52432;SDS011;38352;53.244;6.594;2023-03-14T06:55:49;11.90;;;2.58;;
52432;SDS011;38352;53.244;6.594;2023-03-14T06:58:15;11.18;;;2.10;;
52432;SDS011;38352;53.244;6.594;2023-03-14T07:00:41;16.80;;;2.40;;
52432;SDS011;38352;53.244;6.594;2023-03-14T07:03:07;11.20;;;2.17;;
52432;SDS011;38352;53.244;6.594;2023-03-14T07:05:34;15.82;;;1.77;;
52432;SDS011;38352;53.244;6.594;2023-03-14T07:08:00;17.05;;;2.38;;
52432;SDS011;38352;53.244;6.594;2023-03-14T07:10:26;7.30;;;1.88;;
52432;SDS011;38352;53.244;6.594;2023-03-14T07:12:52;9.98;;;1.65;;
52432;SDS011;38352;53.244;6.594;2023-03-14T07:15:19;10.98;;;1.67;;
52432;SDS011;38352;53.244;6.594;2023-03-14T07:17:45;4.70;;;1.00;;
52432;SDS011;38352;53.244;6.594;2023-03-14T07:20:13;7.68;;;1.30;;
52432;SDS011;38352;53.244;6.594;2023-03-14T07:22:39;6.90;;;1.10;;
52432;SDS011;38352;53.244;6.594;2023-03-14T07:25:05;4.40;;;0.90;;
52432;SDS011;38352;53.244;6.594;2023-03-14T07:27:31;5.82;;;1.20;;
52432;SDS011;38352;53.244;6.594;2023-03-14T07:29:57;5.00;;;0.90;;
52432;SDS011;38352;53.244;6.594;2023-03-14T07:32:23;8.05;;;1.00;;
52432;SDS011;38352;53.244;6.594;2023-03-14T07:34:49;9.23;;;1.17;;
52432;SDS011;38352;53.244;6.594;2023-03-14T07:37:15;8.57;;;0.90;;
52432;SDS011;38352;53.244;6.594;2023-03-14T07:39:41;5.32;;;1.15;;
52432;SDS011;38352;53.244;6.594;2023-03-14T07:42:07;4.90;;;0.82;;
52432;SDS011;38352;53.244;6.594;2023-03-14T07:44:34;4.38;;;0.68;;
52432;SDS011;38352;53.244;6.594;2023-03-14T07:47:00;2.60;;;0.70;;
52432;SDS011;38352;53.244;6.594;2023-03-14T07:49:26;3.90;;;0.80;;
52432;SDS011;38352;53.244;6.594;2023-03-14T07:51:52;5.85;;;0.70;;
52432;SDS011;38352;53.244;6.594;2023-03-14T07:54:18;2.20;;;0.60;;
52432;SDS011;38352;53.244;6.594;2023-03-14T07:56:44;6.07;;;0.82;;
52432;SDS011;38352;53.244;6.594;2023-03-14T07:59:10;5.30;;;0.75;;
52432;SDS011;38352;53.244;6.594;2023-03-14T08:01:37;5.40;;;0.80;;
52432;SDS011;38352;53.244;6.594;2023-03-14T08:04:03;5.85;;;0.80;;
52432;SDS011;38352;53.244;6.594;2023-03-14T08:06:29;5.25;;;0.82;;
52432;SDS011;38352;53.244;6.594;2023-03-14T08:08:55;3.45;;;0.63;;
52432;SDS011;38352;53.244;6.594;2023-03-14T08:11:21;4.28;;;0.68;;
52432;SDS011;38352;53.244;6.594;2023-03-14T08:13:53;4.93;;;0.70;;
52432;SDS011;38352;53.244;6.594;2023-03-14T08:16:19;6.53;;;0.77;;
52432;SDS011;38352;53.244;6.594;2023-03-14T08:18:46;4.90;;;0.80;;
52432;SDS011;38352;53.244;6.594;2023-03-14T08:21:12;5.85;;;1.13;;
52432;SDS011;38352;53.244;6.594;2023-03-14T08:23:38;6.07;;;0.88;;
52432;SDS011;38352;53.244;6.594;2023-03-14T08:26:04;4.15;;;1.05;;
52432;SDS011;38352;53.244;6.594;2023-03-14T08:28:30;6.65;;;1.17;;
52432;SDS011;38352;53.244;6.594;2023-03-14T08:30:58;8.57;;;1.45;;
52432;SDS011;38352;53.244;6.594;2023-03-14T08:33:24;6.90;;;1.73;;
52432;SDS011;38352;53.244;6.594;2023-03-14T08:35:57;10.20;;;1.80;;
52432;SDS011;38352;53.244;6.594;2023-03-14T08:38:24;8.07;;;1.70;;
52432;SDS011;38352;53.244;6.594;2023-03-14T08:40:55;8.43;;;1.55;;
52432;SDS011;38352;53.244;6.594;2023-03-14T08:43:21;8.10;;;1.67;;
52432;SDS011;38352;53.244;6.594;2023-03-14T08:45:47;11.32;;;2.00;;
52432;SDS011;38352;53.244;6.594;2023-03-14T08:48:13;9.02;;;2.20;;
52432;SDS011;38352;53.244;6.594;2023-03-14T08:50:39;12.27;;;2.22;;
52432;SDS011;38352;53.244;6.594;2023-03-14T08:53:06;12.68;;;2.20;;
52432;SDS011;38352;53.244;6.594;2023-03-14T08:55:32;12.65;;;2.22;;
52432;SDS011;38352;53.244;6.594;2023-03-14T08:57:58;11.75;;;2.33;;
52432;SDS011;38352;53.244;6.594;2023-03-14T09:00:24;8.95;;;2.20;;
52432;SDS011;38352;53.244;6.594;2023-03-14T09:02:50;11.55;;;2.08;;
52432;SDS011;38352;53.244;6.594;2023-03-14T09:05:16;10.70;;;2.20;;
52432;SDS011;38352;53.244;6.594;2023-03-14T09:07:42;13.55;;;3.00;;
52432;SDS011;38352;53.244;6.594;2023-03-14T09:10:09;19.60;;;3.35;;
52432;SDS011;38352;53.244;6.594;2023-03-14T09:12:35;11.05;;;2.50;;
52432;SDS011;38352;53.244;6.594;2023-03-14T09:15:01;12.52;;;2.33;;
52432;SDS011;38352;53.244;6.594;2023-03-14T09:17:28;15.30;;;2.75;;
52432;SDS011;38352;53.244;6.594;2023-03-14T09:19:54;18.63;;;2.88;;
52432;SDS011;38352;53.244;6.594;2023-03-14T09:22:20;13.85;;;3.03;;
52432;SDS011;38352;53.244;6.594;2023-03-14T09:24:47;14.73;;;3.35;;
52432;SDS011;38352;53.244;6.594;2023-03-14T09:27:13;19.63;;;3.85;;
52432;SDS011;38352;53.244;6.594;2023-03-14T09:29:39;14.82;;;3.22;;
52432;SDS011;38352;53.244;6.594;2023-03-14T09:32:05;15.00;;;2.60;;
52432;SDS011;38352;53.244;6.594;2023-03-14T09:34:31;19.42;;;3.40;;
52432;SDS011;38352;53.244;6.594;2023-03-14T09:36:58;13.00;;;3.70;;
52432;SDS011;38352;53.244;6.594;2023-03-14T09:39:24;20.38;;;3.83;;
52432;SDS011;38352;53.244;6.594;2023-03-14T09:41:50;14.93;;;3.85;;
52432;SDS011;38352;53.244;6.594;2023-03-14T09:44:27;11.52;;;2.50;;
52432;SDS011;38352;53.244;6.594;2023-03-14T09:46:54;8.90;;;2.35;;
52432;SDS011;38352;53.244;6.594;2023-03-14T09:51:49;13.85;;;3.38;;
52432;SDS011;38352;53.244;6.594;2023-03-14T09:57:01;7.85;;;2.08;;
52432;SDS011;38352;53.244;6.594;2023-03-14T10:45:28;8.55;;;1.73;;
52432;SDS011;38352;53.244;6.594;2023-03-14T10:47:57;7.85;;;2.15;;
52432;SDS011;38352;53.244;6.594;2023-03-14T10:50:25;13.90;;;2.97;;
52432;SDS011;38352;53.244;6.594;2023-03-14T10:52:52;11.57;;;1.83;;
52432;SDS011;38352;53.244;6.594;2023-03-14T10:55:18;9.73;;;2.17;;
52432;SDS011;38352;53.244;6.594;2023-03-14T10:57:45;11.60;;;1.90;;
52432;SDS011;38352;53.244;6.594;2023-03-14T11:00:15;8.88;;;1.75;;
52432;SDS011;38352;53.244;6.594;2023-03-14T11:03:00;7.38;;;1.70;;
52432;SDS011;38352;53.244;6.594;2023-03-14T11:05:34;10.77;;;1.48;;
52432;SDS011;38352;53.244;6.594;2023-03-14T11:08:08;5.57;;;1.65;;
52432;SDS011;38352;53.244;6.594;2023-03-14T11:10:36;8.05;;;1.70;;
52432;SDS011;38352;53.244;6.594;2023-03-14T11:28:56;4.65;;;1.20;;
52432;SDS011;38352;53.244;6.594;2023-03-14T11:39:15;6.18;;;1.95;;
52432;SDS011;38352;53.244;6.594;2023-03-14T11:41:43;5.20;;;1.33;;
52432;SDS011;38352;53.244;6.594;2023-03-14T11:44:21;6.32;;;1.55;;
52432;SDS011;38352;53.244;6.594;2023-03-14T11:46:50;5.38;;;1.60;;
52432;SDS011;38352;53.244;6.594;2023-03-14T11:51:46;6.07;;;1.42;;
52432;SDS011;38352;53.244;6.594;2023-03-14T11:56:52;8.07;;;1.65;;
52432;SDS011;38352;53.244;6.594;2023-03-14T11:59:24;8.70;;;2.00;;
52432;SDS011;38352;53.244;6.594;2023-03-14T12:04:34;7.70;;;1.38;;
52432;SDS011;38352;53.244;6.594;2023-03-14T12:07:08;7.63;;;1.70;;
52432;SDS011;38352;53.244;6.594;2023-03-14T12:09:38;10.13;;;2.08;;
52432;SDS011;38352;53.244;6.594;2023-03-14T12:12:04;7.80;;;1.88;;
52432;SDS011;38352;53.244;6.594;2023-03-14T12:14:35;9.18;;;1.75;;
52432;SDS011;38352;53.244;6.594;2023-03-14T12:17:06;6.80;;;1.55;;
52432;SDS011;38352;53.244;6.594;2023-03-14T12:19:36;6.28;;;1.30;;
52432;SDS011;38352;53.244;6.594;2023-03-14T12:22:23;10.48;;;2.53;;
52432;SDS011;38352;53.244;6.594;2023-03-14T12:24:51;8.25;;;1.52;;
52432;SDS011;38352;53.244;6.594;2023-03-14T12:30:04;7.40;;;2.25;;
52432;SDS011;38352;53.244;6.594;2023-03-14T12:32:36;12.68;;;1.80;;
52432;SDS011;38352;53.244;6.594;2023-03-14T12:36:03;9.95;;;2.22;;
52432;SDS011;38352;53.244;6.594;2023-03-14T12:37:57;8.55;;;2.00;;
52432;SDS011;38352;53.244;6.594;2023-03-14T12:40:35;11.40;;;2.15;;
52432;SDS011;38352;53.244;6.594;2023-03-14T12:43:04;13.73;;;1.95;;
52432;SDS011;38352;53.244;6.594;2023-03-14T12:45:37;14.65;;;2.00;;
52432;SDS011;38352;53.244;6.594;2023-03-14T12:54:13;8.95;;;1.92;;
52432;SDS011;38352;53.244;6.594;2023-03-14T12:59:02;7.05;;;1.65;;
52432;SDS011;38352;53.244;6.594;2023-03-14T13:01:32;4.57;;;1.60;;
52432;SDS011;38352;53.244;6.594;2023-03-14T13:04:02;6.88;;;1.67;;
52432;SDS011;38352;53.244;6.594;2023-03-14T13:06:46;7.03;;;1.60;;
52432;SDS011;38352;53.244;6.594;2023-03-14T13:12:10;6.30;;;1.10;;
52432;SDS011;38352;53.244;6.594;2023-03-14T13:14:41;6.20;;;1.15;;
52432;SDS011;38352;53.244;6.594;2023-03-14T13:17:12;6.35;;;1.58;;
52432;SDS011;38352;53.244;6.594;2023-03-14T13:19:38;6.43;;;1.45;;
52432;SDS011;38352;53.244;6.594;2023-03-14T13:22:05;7.35;;;1.38;;
52432;SDS011;38352;53.244;6.594;2023-03-14T13:24:35;8.65;;;1.95;;
52432;SDS011;38352;53.244;6.594;2023-03-14T13:27:01;9.45;;;2.30;;
52432;SDS011;38352;53.244;6.594;2023-03-14T13:29:28;9.48;;;1.52;;
52432;SDS011;38352;53.244;6.594;2023-03-14T13:31:57;4.95;;;1.20;;
52432;SDS011;38352;53.244;6.594;2023-03-14T13:34:33;6.00;;;1.10;;
52432;SDS011;38352;53.244;6.594;2023-03-14T13:37:00;6.43;;;1.30;;
52432;SDS011;38352;53.244;6.594;2023-03-14T13:39:27;7.82;;;1.40;;
52432;SDS011;38352;53.244;6.594;2023-03-14T13:41:54;8.20;;;2.42;;
52432;SDS011;38352;53.244;6.594;2023-03-14T13:46:49;7.30;;;1.70;;
52432;SDS011;38352;53.244;6.594;2023-03-14T13:49:21;7.82;;;1.60;;
52432;SDS011;38352;53.244;6.594;2023-03-14T13:51:48;8.45;;;1.48;;
52432;SDS011;38352;53.244;6.594;2023-03-14T13:54:15;7.35;;;1.63;;
52432;SDS011;38352;53.244;6.594;2023-03-14T13:56:41;8.55;;;1.70;;
52432;SDS011;38352;53.244;6.594;2023-03-14T14:01:55;4.22;;;1.20;;
52432;SDS011;38352;53.244;6.594;2023-03-14T14:04:23;8.45;;;1.33;;
52432;SDS011;38352;53.244;6.594;2023-03-14T14:06:59;6.97;;;1.75;;
52432;SDS011;38352;53.244;6.594;2023-03-14T14:09:30;6.15;;;1.67;;
52432;SDS011;38352;53.244;6.594;2023-03-14T14:11:58;6.10;;;1.80;;
52432;SDS011;38352;53.244;6.594;2023-03-14T14:17:26;9.90;;;2.15;;
52432;SDS011;38352;53.244;6.594;2023-03-14T14:19:53;5.47;;;1.40;;
52432;SDS011;38352;53.244;6.594;2023-03-14T14:22:21;4.95;;;1.20;;
52432;SDS011;38352;53.244;6.594;2023-03-14T14:24:47;10.15;;;1.67;;
52432;SDS011;38352;53.244;6.594;2023-03-14T14:27:24;6.13;;;1.45;;
52432;SDS011;38352;53.244;6.594;2023-03-14T14:29:57;5.45;;;2.00;;
52432;SDS011;38352;53.244;6.594;2023-03-14T14:32:24;8.57;;;1.63;;
52432;SDS011;38352;53.244;6.594;2023-03-14T14:34:58;7.88;;;1.25;;
52432;SDS011;38352;53.244;6.594;2023-03-14T14:39:50;6.50;;;1.45;;
52432;SDS011;38352;53.244;6.594;2023-03-14T14:42:18;6.65;;;1.45;;
52432;SDS011;38352;53.244;6.594;2023-03-14T14:44:47;14.60;;;2.70;;
52432;SDS011;38352;53.244;6.594;2023-03-14T14:47:15;10.23;;;1.85;;
52432;SDS011;38352;53.244;6.594;2023-03-14T14:49:43;7.93;;;1.60;;
52432;SDS011;38352;53.244;6.594;2023-03-14T14:52:11;8.93;;;2.45;;
52432;SDS011;38352;53.244;6.594;2023-03-14T14:54:45;9.60;;;2.35;;
52432;SDS011;38352;53.244;6.594;2023-03-14T14:57:17;6.57;;;2.30;;
52432;SDS011;38352;53.244;6.594;2023-03-14T14:59:43;5.72;;;1.33;;
52432;SDS011;38352;53.244;6.594;2023-03-14T15:02:22;6.32;;;1.65;;
52432;SDS011;38352;53.244;6.594;2023-03-14T15:04:49;7.82;;;1.77;;
52432;SDS011;38352;53.244;6.594;2023-03-14T15:07:15;6.63;;;1.48;;
52432;SDS011;38352;53.244;6.594;2023-03-14T15:09:42;8.57;;;1.27;;
52432;SDS011;38352;53.244;6.594;2023-03-14T15:12:08;6.63;;;1.25;;
52432;SDS011;38352;53.244;6.594;2023-03-14T15:14:34;7.85;;;1.63;;
52432;SDS011;38352;53.244;6.594;2023-03-14T15:17:00;8.18;;;1.77;;
52432;SDS011;38352;53.244;6.594;2023-03-14T15:19:26;5.53;;;1.88;;
52432;SDS011;38352;53.244;6.594;2023-03-14T15:21:55;6.90;;;1.85;;
52432;SDS011;38352;53.244;6.594;2023-03-14T15:24:21;6.00;;;1.23;;
52432;SDS011;38352;53.244;6.594;2023-03-14T15:26:48;6.72;;;1.58;;
52432;SDS011;38352;53.244;6.594;2023-03-14T15:29:14;6.18;;;1.38;;
52432;SDS011;38352;53.244;6.594;2023-03-14T15:31:40;7.97;;;1.95;;
52432;SDS011;38352;53.244;6.594;2023-03-14T15:34:08;6.72;;;1.73;;
52432;SDS011;38352;53.244;6.594;2023-03-14T15:36:34;6.82;;;1.63;;
52432;SDS011;38352;53.244;6.594;2023-03-14T15:39:01;13.45;;;1.80;;
52432;SDS011;38352;53.244;6.594;2023-03-14T15:41:27;6.53;;;1.63;;
52432;SDS011;38352;53.244;6.594;2023-03-14T15:43:54;8.98;;;1.80;;
52432;SDS011;38352;53.244;6.594;2023-03-14T15:46:20;8.50;;;1.52;;
52432;SDS011;38352;53.244;6.594;2023-03-14T15:48:47;6.53;;;2.40;;
52432;SDS011;38352;53.244;6.594;2023-03-14T15:51:14;8.23;;;1.55;;
52432;SDS011;38352;53.244;6.594;2023-03-14T15:53:40;7.53;;;1.52;;
52432;SDS011;38352;53.244;6.594;2023-03-14T15:56:11;5.75;;;1.17;;
52432;SDS011;38352;53.244;6.594;2023-03-14T15:58:37;5.18;;;1.30;;
52432;SDS011;38352;53.244;6.594;2023-03-14T16:01:05;5.70;;;1.15;;
52432;SDS011;38352;53.244;6.594;2023-03-14T16:03:33;9.80;;;1.23;;
52432;SDS011;38352;53.244;6.594;2023-03-14T16:05:59;5.95;;;1.83;;
52432;SDS011;38352;53.244;6.594;2023-03-14T16:08:26;6.90;;;1.30;;
52432;SDS011;38352;53.244;6.594;2023-03-14T16:10:53;6.88;;;1.77;;
52432;SDS011;38352;53.244;6.594;2023-03-14T16:13:20;5.97;;;1.45;;
52432;SDS011;38352;53.244;6.594;2023-03-14T16:16:07;6.70;;;1.60;;
52432;SDS011;38352;53.244;6.594;2023-03-14T16:18:33;11.27;;;1.67;;
52432;SDS011;38352;53.244;6.594;2023-03-14T16:21:00;4.38;;;1.40;;
52432;SDS011;38352;53.244;6.594;2023-03-14T16:23:27;5.60;;;1.42;;
52432;SDS011;38352;53.244;6.594;2023-03-14T16:25:53;9.27;;;1.40;;
52432;SDS011;38352;53.244;6.594;2023-03-14T16:28:20;5.70;;;1.95;;
52432;SDS011;38352;53.244;6.594;2023-03-14T16:30:46;9.05;;;1.60;;
52432;SDS011;38352;53.244;6.594;2023-03-14T16:33:13;6.97;;;1.58;;
52432;SDS011;38352;53.244;6.594;2023-03-14T16:35:39;6.75;;;1.92;;
52432;SDS011;38352;53.244;6.594;2023-03-14T16:38:05;11.82;;;1.83;;
52432;SDS011;38352;53.244;6.594;2023-03-14T16:40:32;8.50;;;1.88;;
52432;SDS011;38352;53.244;6.594;2023-03-14T16:42:58;12.80;;;1.75;;